SKLT/LET METAR and TAF weather

Enter ICAO airport designator
Station Type Date Time Source
SKLT METAR 2022/06/27 07:00 UTC NOAA

SKLT 270700Z 00000KT 9999 FEW012 21/21 Q101 RMK A2984


Station Type Date Time Source
SKLT Decoded METAR 2022/06/27 07:00 UTC NOAA

Leticia / Vasquez Cobo, Colombia (SKLT) 04-10S 069-57W 84M
Jun 27, 2022 - 03:00 AM EDT / 2022.06.27 0700 UTC
Wind: Calm:0
Visibility: greater than 7 mile(s):0
Sky conditions: mostly clear
Temperature: 69 F (21 C)
Dew Point: 69 F (21 C)
Relative Humidity: 100%
ob: SKLT 270700Z 00000KT 9999 FEW012 21/21 Q101 RMK A2984
cycle: 7

Station Type Date Time Source
SKLT TAF 2022/06/27 06:46 UTC NOAA

TAF SKLT 270430Z 2706/2806 VRB02KT 9999 SCT010 BKN070
TEMPO 2706/2709 5000 DZRA BKN010 PROB40
TEMPO 2721/2724 28010KT TS BKN015CB TX30/2718Z TN22/2710Z

Example: see airport list